Strona główna
METAR-TAF:

METAR-TAF

Lotnisko :

Natal, Rio Grande do Norte, Brazylia

Szerokość geograficzna: 05-46-05S, Długość geograficzna: 035-22-34W, wysokość: 88 m

Aktualna obserwacja pogody

Raport powstał 23 minut temu, godzina 07:00 UTC
Wiatr 5 kt od południowy zachód
Temperatura 21°C
Wilgotność 94%
Ciśnienie 1016 hPa
Widzialność 10 km lub więcej
Mało chmury na wysokości 1700 ft

METAR: SBSG 200700Z 22005KT 9999 FEW017 21/20 Q1016

czas: 04:23 (07:23 UTC)

Prognoza

Raport powstał 5 godziny i 23 minut temu, godzina 02:00 UTC
Prognoza ważna od 20 godzina 06 UTC do 21 godzina 06 UTC
Wiatr 5 kt od południowy zachód
Widzialność 10 km lub więcej
Rozproszone chmury na wysokości 1600 ft
Stopniowe zmiany
od 20 godzina 12 UTC do 20 godzina 13 UTC
Wiatr 10 kt od południe
Stopniowe zmiany
od 20 godzina 21 UTC do 20 godzina 21 UTC
Wiatr 5 kt od południowy zachód

TAF: SBSG 200200Z 2006/2106 22005KT 9999 SCT016 TN22/2007Z TX29/2015Z BECMG 2012/2013 18010KT BECMG 2021/2021 22005KT RMK PCN

Obserwacja i prognoza pogody dla ponad 4000 lotnisk (raport METAR i TAF).

Dostępne stacje oznaczono żółtymi i czerwonymi punktami na mapie.

Najedź kursorem aby zobaczyć nazwę stacji.

Kliknij aby zobaczyć obserwacje i prognozy pogody.

Aby zmienić mapę: kliknij na zielony przycisk z czarnym krzyżykiem, aby powiększyć; na zielony przycisk z myślnikiem, aby pomniejszyć; na zielone strzałki, aby przejść do map sąsiednich.


METAR-TAF: